sensor_id;sensor_type;location;lat;lon;timestamp;pressure;altitude;pressure_sealevel;temperature;humidity
50011;BME280;35899;50.352;19.390;2023-02-28T00:00:36;98918.80;;;-1.34;75.83
50011;BME280;35899;50.352;19.390;2023-02-28T00:03:15;98922.20;;;-1.35;76.07
50011;BME280;35899;50.352;19.390;2023-02-28T00:05:41;98920.67;;;-1.36;76.22
50011;BME280;35899;50.352;19.390;2023-02-28T00:08:08;98915.93;;;-1.37;76.37
50011;BME280;35899;50.352;19.390;2023-02-28T00:10:35;98916.11;;;-1.38;76.47
50011;BME280;35899;50.352;19.390;2023-02-28T00:13:03;98920.00;;;-1.40;76.66
50011;BME280;35899;50.352;19.390;2023-02-28T00:15:30;98917.46;;;-1.40;76.73
50011;BME280;35899;50.352;19.390;2023-02-28T00:17:56;98922.90;;;-1.41;76.82
50011;BME280;35899;50.352;19.390;2023-02-28T00:20:23;98924.27;;;-1.41;76.91
50011;BME280;35899;50.352;19.390;2023-02-28T00:22:51;98926.48;;;-1.42;77.04
50011;BME280;35899;50.352;19.390;2023-02-28T00:25:19;98925.98;;;-1.43;77.17
50011;BME280;35899;50.352;19.390;2023-02-28T00:27:46;98928.02;;;-1.43;77.19
50011;BME280;35899;50.352;19.390;2023-02-28T00:30:17;98929.70;;;-1.43;77.45
50011;BME280;35899;50.352;19.390;2023-02-28T00:32:43;98933.62;;;-1.44;77.31
50011;BME280;35899;50.352;19.390;2023-02-28T00:35:10;98928.20;;;-1.46;77.37
50011;BME280;35899;50.352;19.390;2023-02-28T00:37:36;98924.14;;;-1.47;77.55
50011;BME280;35899;50.352;19.390;2023-02-28T00:40:05;98924.64;;;-1.47;77.81
50011;BME280;35899;50.352;19.390;2023-02-28T00:42:32;98927.02;;;-1.49;77.59
50011;BME280;35899;50.352;19.390;2023-02-28T00:44:58;98926.52;;;-1.50;77.82
50011;BME280;35899;50.352;19.390;2023-02-28T00:47:25;98925.70;;;-1.52;77.83
50011;BME280;35899;50.352;19.390;2023-02-28T00:49:52;98922.48;;;-1.55;77.75
50011;BME280;35899;50.352;19.390;2023-02-28T00:52:18;98927.57;;;-1.55;77.96
50011;BME280;35899;50.352;19.390;2023-02-28T00:54:44;98929.79;;;-1.57;77.84
50011;BME280;35899;50.352;19.390;2023-02-28T00:57:11;98931.66;;;-1.58;78.34
50011;BME280;35899;50.352;19.390;2023-02-28T00:59:37;98929.63;;;-1.58;78.45
50011;BME280;35899;50.352;19.390;2023-02-28T01:02:05;98928.94;;;-1.59;78.60
50011;BME280;35899;50.352;19.390;2023-02-28T01:04:32;98924.52;;;-1.59;78.77
50011;BME280;35899;50.352;19.390;2023-02-28T01:07:00;98925.54;;;-1.58;79.10
50011;BME280;35899;50.352;19.390;2023-02-28T01:09:28;98928.08;;;-1.57;79.04
50011;BME280;35899;50.352;19.390;2023-02-28T01:11:54;98927.90;;;-1.54;79.10
50011;BME280;35899;50.352;19.390;2023-02-28T01:14:21;98927.56;;;-1.54;78.97
50011;BME280;35899;50.352;19.390;2023-02-28T01:16:47;98928.94;;;-1.56;78.88
50011;BME280;35899;50.352;19.390;2023-02-28T01:19:13;98928.94;;;-1.56;79.00
50011;BME280;35899;50.352;19.390;2023-02-28T01:21:40;98928.25;;;-1.57;78.97
50011;BME280;35899;50.352;19.390;2023-02-28T01:24:06;98927.92;;;-1.58;78.94
50011;BME280;35899;50.352;19.390;2023-02-28T01:26:35;98926.57;;;-1.60;78.85
50011;BME280;35899;50.352;19.390;2023-02-28T01:29:01;98926.27;;;-1.64;78.83
50011;BME280;35899;50.352;19.390;2023-02-28T01:31:27;98924.56;;;-1.65;78.98
50011;BME280;35899;50.352;19.390;2023-02-28T01:33:55;98929.48;;;-1.65;79.12
50011;BME280;35899;50.352;19.390;2023-02-28T01:36:22;98928.98;;;-1.66;78.99
50011;BME280;35899;50.352;19.390;2023-02-28T01:38:48;98927.11;;;-1.67;79.28
50011;BME280;35899;50.352;19.390;2023-02-28T01:41:17;98925.77;;;-1.67;79.35
50011;BME280;35899;50.352;19.390;2023-02-28T01:46:12;98921.52;;;-1.66;79.66
50011;BME280;35899;50.352;19.390;2023-02-28T01:48:40;98922.55;;;-1.68;79.43
50011;BME280;35899;50.352;19.390;2023-02-28T01:51:09;98919.84;;;-1.71;79.56
50011;BME280;35899;50.352;19.390;2023-02-28T01:53:41;98919.67;;;-1.71;79.67
50011;BME280;35899;50.352;19.390;2023-02-28T01:56:09;98920.17;;;-1.69;79.87
50011;BME280;35899;50.352;19.390;2023-02-28T01:58:38;98922.20;;;-1.67;79.94
50011;BME280;35899;50.352;19.390;2023-02-28T02:01:04;98920.50;;;-1.66;79.89
50011;BME280;35899;50.352;19.390;2023-02-28T02:03:32;98918.80;;;-1.68;79.82
50011;BME280;35899;50.352;19.390;2023-02-28T02:06:01;98921.02;;;-1.70;79.91
50011;BME280;35899;50.352;19.390;2023-02-28T02:08:28;98920.19;;;-1.71;80.33
50011;BME280;35899;50.352;19.390;2023-02-28T02:10:56;98920.70;;;-1.72;80.33
50011;BME280;35899;50.352;19.390;2023-02-28T02:18:43;98912.10;;;-1.87;80.00
50011;BME280;35899;50.352;19.390;2023-02-28T02:21:16;98914.34;;;-1.93;80.12
50011;BME280;35899;50.352;19.390;2023-02-28T02:34:09;98911.41;;;-2.31;80.75
50011;BME280;35899;50.352;19.390;2023-02-28T02:36:48;98911.77;;;-2.38;80.89
50011;BME280;35899;50.352;19.390;2023-02-28T02:39:40;98914.49;;;-2.46;80.76
50011;BME280;35899;50.352;19.390;2023-02-28T02:42:14;98908.59;;;-2.56;80.94
50011;BME280;35899;50.352;19.390;2023-02-28T02:44:43;98910.11;;;-2.63;81.12
50011;BME280;35899;50.352;19.390;2023-02-28T02:47:15;98908.45;;;-2.68;81.24
50011;BME280;35899;50.352;19.390;2023-02-28T02:49:45;98904.20;;;-2.73;81.43
50011;BME280;35899;50.352;19.390;2023-02-28T02:52:14;98903.36;;;-2.78;81.67
50011;BME280;35899;50.352;19.390;2023-02-28T02:54:41;98903.70;;;-2.83;81.82
50011;BME280;35899;50.352;19.390;2023-02-28T02:57:11;98904.89;;;-2.88;81.87
50011;BME280;35899;50.352;19.390;2023-02-28T02:59:40;98903.55;;;-2.94;81.96
50011;BME280;35899;50.352;19.390;2023-02-28T03:02:08;98904.39;;;-2.99;81.99
50011;BME280;35899;50.352;19.390;2023-02-28T03:04:39;98906.25;;;-3.03;82.04
50011;BME280;35899;50.352;19.390;2023-02-28T03:07:10;98909.46;;;-3.06;82.06
50011;BME280;35899;50.352;19.390;2023-02-28T03:09:36;98907.10;;;-3.09;82.24
50011;BME280;35899;50.352;19.390;2023-02-28T03:12:07;98903.38;;;-3.11;82.41
50011;BME280;35899;50.352;19.390;2023-02-28T03:17:22;98898.96;;;-3.18;82.69
50011;BME280;35899;50.352;19.390;2023-02-28T03:27:29;98906.23;;;-3.27;83.21
50011;BME280;35899;50.352;19.390;2023-02-28T03:29:58;98907.92;;;-3.29;83.34
50011;BME280;35899;50.352;19.390;2023-02-28T03:32:32;98912.84;;;-3.33;83.22
50011;BME280;35899;50.352;19.390;2023-02-28T03:37:30;98917.06;;;-3.38;83.37
50011;BME280;35899;50.352;19.390;2023-02-28T03:39:59;98917.23;;;-3.39;83.38
50011;BME280;35899;50.352;19.390;2023-02-28T03:42:27;98916.88;;;-3.41;83.54
50011;BME280;35899;50.352;19.390;2023-02-28T03:44:57;98919.92;;;-3.42;83.67
50011;BME280;35899;50.352;19.390;2023-02-28T03:47:32;98922.12;;;-3.45;83.64
50011;BME280;35899;50.352;19.390;2023-02-28T03:52:35;98921.92;;;-3.51;83.66
50011;BME280;35899;50.352;19.390;2023-02-28T03:55:04;98927.34;;;-3.55;83.66
50011;BME280;35899;50.352;19.390;2023-02-28T04:00:18;98927.65;;;-3.63;83.72
50011;BME280;35899;50.352;19.390;2023-02-28T04:02:46;98926.29;;;-3.67;83.68
50011;BME280;35899;50.352;19.390;2023-02-28T04:05:12;98931.02;;;-3.69;83.78
50011;BME280;35899;50.352;19.390;2023-02-28T04:07:39;98927.30;;;-3.72;83.81
50011;BME280;35899;50.352;19.390;2023-02-28T04:10:05;98932.86;;;-3.75;83.72
50011;BME280;35899;50.352;19.390;2023-02-28T04:12:32;98931.51;;;-3.77;83.89
50011;BME280;35899;50.352;19.390;2023-02-28T04:14:59;98933.19;;;-3.79;83.98
50011;BME280;35899;50.352;19.390;2023-02-28T04:17:25;98934.02;;;-3.81;84.03
50011;BME280;35899;50.352;19.390;2023-02-28T04:19:51;98931.14;;;-3.83;84.25
50011;BME280;35899;50.352;19.390;2023-02-28T04:22:18;98931.98;;;-3.85;84.25
50011;BME280;35899;50.352;19.390;2023-02-28T04:24:44;98930.63;;;-3.86;84.40
50011;BME280;35899;50.352;19.390;2023-02-28T04:27:10;98933.98;;;-3.89;84.48
50011;BME280;35899;50.352;19.390;2023-02-28T04:29:37;98936.69;;;-3.92;84.58
50011;BME280;35899;50.352;19.390;2023-02-28T04:32:03;98938.88;;;-3.95;84.37
50011;BME280;35899;50.352;19.390;2023-02-28T04:34:30;98941.23;;;-3.97;84.69
50011;BME280;35899;50.352;19.390;2023-02-28T04:36:57;98943.42;;;-4.00;84.93
50011;BME280;35899;50.352;19.390;2023-02-28T04:39:39;98945.77;;;-4.02;84.93
50011;BME280;35899;50.352;19.390;2023-02-28T04:42:05;98945.09;;;-4.04;84.82
50011;BME280;35899;50.352;19.390;2023-02-28T04:44:32;98949.46;;;-4.07;84.76
50011;BME280;35899;50.352;19.390;2023-02-28T04:46:58;98952.67;;;-4.10;84.97
50011;BME280;35899;50.352;19.390;2023-02-28T04:49:25;98956.89;;;-4.13;84.70
50011;BME280;35899;50.352;19.390;2023-02-28T04:51:51;98952.81;;;-4.16;84.81
50011;BME280;35899;50.352;19.390;2023-02-28T04:54:18;98956.35;;;-4.18;84.79
50011;BME280;35899;50.352;19.390;2023-02-28T04:56:44;98958.36;;;-4.20;84.82
50011;BME280;35899;50.352;19.390;2023-02-28T04:59:11;98961.39;;;-4.21;84.95
50011;BME280;35899;50.352;19.390;2023-02-28T05:01:37;98962.40;;;-4.22;84.95
50011;BME280;35899;50.352;19.390;2023-02-28T05:04:06;98963.08;;;-4.24;85.01
50011;BME280;35899;50.352;19.390;2023-02-28T05:06:34;98965.26;;;-4.25;85.21
50011;BME280;35899;50.352;19.390;2023-02-28T05:09:01;98963.56;;;-4.27;85.03
50011;BME280;35899;50.352;19.390;2023-02-28T05:11:31;98964.90;;;-4.29;85.16
50011;BME280;35899;50.352;19.390;2023-02-28T05:13:58;98964.55;;;-4.32;85.19
50011;BME280;35899;50.352;19.390;2023-02-28T05:16:25;98966.90;;;-4.35;85.32
50011;BME280;35899;50.352;19.390;2023-02-28T05:18:54;98965.02;;;-4.38;85.23
50011;BME280;35899;50.352;19.390;2023-02-28T05:21:25;98970.23;;;-4.40;85.30
50011;BME280;35899;50.352;19.390;2023-02-28T05:23:52;98970.39;;;-4.42;85.44
50011;BME280;35899;50.352;19.390;2023-02-28T05:26:19;98974.10;;;-4.44;85.53
50011;BME280;35899;50.352;19.390;2023-02-28T05:28:45;98977.62;;;-4.47;85.39
50011;BME280;35899;50.352;19.390;2023-02-28T05:31:12;98982.52;;;-4.48;85.54
50011;BME280;35899;50.352;19.390;2023-02-28T05:33:39;98982.50;;;-4.49;85.66
50011;BME280;35899;50.352;19.390;2023-02-28T05:36:08;98984.87;;;-4.51;85.56
50011;BME280;35899;50.352;19.390;2023-02-28T05:38:35;98986.22;;;-4.51;85.82
50011;BME280;35899;50.352;19.390;2023-02-28T05:41:08;98991.29;;;-4.51;85.75
50011;BME280;35899;50.352;19.390;2023-02-28T05:43:35;98993.65;;;-4.50;85.81
50011;BME280;35899;50.352;19.390;2023-02-28T05:46:02;98994.85;;;-4.49;86.01
50011;BME280;35899;50.352;19.390;2023-02-28T05:48:29;98996.21;;;-4.45;86.10
50011;BME280;35899;50.352;19.390;2023-02-28T05:50:56;98999.45;;;-4.42;86.26
50011;BME280;35899;50.352;19.390;2023-02-28T05:53:26;98997.29;;;-4.40;86.13
50011;BME280;35899;50.352;19.390;2023-02-28T05:55:53;99003.05;;;-4.36;86.20
50011;BME280;35899;50.352;19.390;2023-02-28T05:58:20;99003.58;;;-4.31;86.30
50011;BME280;35899;50.352;19.390;2023-02-28T06:00:46;99009.89;;;-4.24;86.25
50011;BME280;35899;50.352;19.390;2023-02-28T06:03:13;99004.70;;;-4.15;86.51
50011;BME280;35899;50.352;19.390;2023-02-28T06:05:40;99014.40;;;-4.05;86.43
50011;BME280;35899;50.352;19.390;2023-02-28T06:08:06;99014.10;;;-3.98;86.48
50011;BME280;35899;50.352;19.390;2023-02-28T06:10:33;99017.03;;;-3.90;86.44
50011;BME280;35899;50.352;19.390;2023-02-28T06:13:00;99019.60;;;-3.82;86.36
50011;BME280;35899;50.352;19.390;2023-02-28T06:15:26;99020.64;;;-3.77;86.34
50011;BME280;35899;50.352;19.390;2023-02-28T06:17:53;99022.21;;;-3.67;86.34
50011;BME280;35899;50.352;19.390;2023-02-28T06:20:25;99023.61;;;-3.56;86.34
50011;BME280;35899;50.352;19.390;2023-02-28T06:22:58;99025.17;;;-3.45;86.20
50011;BME280;35899;50.352;19.390;2023-02-28T06:25:27;99027.40;;;-3.37;85.94
50011;BME280;35899;50.352;19.390;2023-02-28T06:27:54;99026.92;;;-3.31;85.79
50011;BME280;35899;50.352;19.390;2023-02-28T06:30:21;99026.61;;;-3.23;85.62
50011;BME280;35899;50.352;19.390;2023-02-28T06:32:47;99026.28;;;-3.16;85.47
50011;BME280;35899;50.352;19.390;2023-02-28T06:35:14;99025.80;;;-3.08;85.62
50011;BME280;35899;50.352;19.390;2023-02-28T06:37:40;99028.69;;;-2.98;85.63
50011;BME280;35899;50.352;19.390;2023-02-28T06:40:08;99030.23;;;-2.88;85.69
50011;BME280;35899;50.352;19.390;2023-02-28T06:42:35;99032.79;;;-2.75;85.65
50011;BME280;35899;50.352;19.390;2023-02-28T06:45:01;99032.13;;;-2.66;85.63
50011;BME280;35899;50.352;19.390;2023-02-28T06:47:40;99033.31;;;-2.55;85.66
50011;BME280;35899;50.352;19.390;2023-02-28T06:50:12;99030.77;;;-2.45;85.58
50011;BME280;35899;50.352;19.390;2023-02-28T06:52:39;99029.08;;;-2.37;85.51
50011;BME280;35899;50.352;19.390;2023-02-28T06:55:06;99028.90;;;-2.28;85.70
50011;BME280;35899;50.352;19.390;2023-02-28T06:57:33;99026.70;;;-2.19;85.73
50011;BME280;35899;50.352;19.390;2023-02-28T07:00:02;99030.92;;;-2.09;85.95
50011;BME280;35899;50.352;19.390;2023-02-28T07:02:30;99031.74;;;-2.00;85.99
50011;BME280;35899;50.352;19.390;2023-02-28T07:05:04;99031.89;;;-1.89;86.20
50011;BME280;35899;50.352;19.390;2023-02-28T07:07:32;99031.70;;;-1.78;86.26
50011;BME280;35899;50.352;19.390;2023-02-28T07:09:58;99035.40;;;-1.67;86.44
50011;BME280;35899;50.352;19.390;2023-02-28T07:12:25;99031.95;;;-1.55;86.51
50011;BME280;35899;50.352;19.390;2023-02-28T07:14:51;99034.64;;;-1.45;86.59
50011;BME280;35899;50.352;19.390;2023-02-28T07:17:18;99034.41;;;-1.33;86.79
50011;BME280;35899;50.352;19.390;2023-02-28T07:19:46;99035.89;;;-1.20;86.77
50011;BME280;35899;50.352;19.390;2023-02-28T07:22:13;99038.04;;;-1.09;86.54
50011;BME280;35899;50.352;19.390;2023-02-28T07:24:42;99040.19;;;-0.99;86.22
50011;BME280;35899;50.352;19.390;2023-02-28T07:27:08;99043.38;;;-0.91;86.18
50011;BME280;35899;50.352;19.390;2023-02-28T07:29:34;99043.98;;;-0.80;86.28
50011;BME280;35899;50.352;19.390;2023-02-28T07:32:01;99043.92;;;-0.71;86.13
50011;BME280;35899;50.352;19.390;2023-02-28T07:34:28;99043.19;;;-0.62;85.82
50011;BME280;35899;50.352;19.390;2023-02-28T07:36:54;99043.27;;;-0.51;85.66
50011;BME280;35899;50.352;19.390;2023-02-28T07:39:23;99046.46;;;-0.45;84.99
50011;BME280;35899;50.352;19.390;2023-02-28T07:41:52;99047.77;;;-0.38;84.77
50011;BME280;35899;50.352;19.390;2023-02-28T07:44:22;99047.04;;;-0.32;84.76
50011;BME280;35899;50.352;19.390;2023-02-28T07:46:51;99049.54;;;-0.26;84.22
50011;BME280;35899;50.352;19.390;2023-02-28T07:49:18;99049.49;;;-0.21;83.84
50011;BME280;35899;50.352;19.390;2023-02-28T07:51:44;99046.89;;;-0.15;83.90
50011;BME280;35899;50.352;19.390;2023-02-28T07:54:10;99048.52;;;-0.07;83.76
50011;BME280;35899;50.352;19.390;2023-02-28T07:56:37;99043.52;;;-0.01;83.18
50011;BME280;35899;50.352;19.390;2023-02-28T07:59:03;99043.98;;;0.04;82.89
50011;BME280;35899;50.352;19.390;2023-02-28T08:01:30;99044.30;;;0.06;82.67
50011;BME280;35899;50.352;19.390;2023-02-28T08:03:57;99037.00;;;0.05;82.29
50011;BME280;35899;50.352;19.390;2023-02-28T08:06:24;99036.02;;;0.02;81.65
50011;BME280;35899;50.352;19.390;2023-02-28T08:08:53;99039.30;;;-0.04;81.35
50011;BME280;35899;50.352;19.390;2023-02-28T08:11:20;99043.23;;;-0.06;81.18
50011;BME280;35899;50.352;19.390;2023-02-28T08:13:46;99047.14;;;-0.05;80.78
50011;BME280;35899;50.352;19.390;2023-02-28T08:16:13;99044.33;;;0.04;81.08
50011;BME280;35899;50.352;19.390;2023-02-28T08:18:40;99045.72;;;0.19;80.87
50011;BME280;35899;50.352;19.390;2023-02-28T08:21:07;99044.56;;;0.32;80.24
50011;BME280;35899;50.352;19.390;2023-02-28T08:23:33;99044.04;;;0.47;79.59
50011;BME280;35899;50.352;19.390;2023-02-28T08:26:00;99040.38;;;0.55;79.20
50011;BME280;35899;50.352;19.390;2023-02-28T08:28:26;99042.90;;;0.57;78.57
50011;BME280;35899;50.352;19.390;2023-02-28T08:30:53;99042.20;;;0.58;78.42
50011;BME280;35899;50.352;19.390;2023-02-28T08:33:20;99045.14;;;0.55;78.11
50011;BME280;35899;50.352;19.390;2023-02-28T08:35:47;99043.40;;;0.44;77.58
50011;BME280;35899;50.352;19.390;2023-02-28T08:38:13;99049.00;;;0.30;77.36
50011;BME280;35899;50.352;19.390;2023-02-28T08:40:40;99048.65;;;0.16;76.94
50011;BME280;35899;50.352;19.390;2023-02-28T08:43:06;99045.45;;;0.11;76.92
50011;BME280;35899;50.352;19.390;2023-02-28T08:45:33;99047.21;;;0.06;76.70
50011;BME280;35899;50.352;19.390;2023-02-28T08:47:59;99048.08;;;0.04;77.00
50011;BME280;35899;50.352;19.390;2023-02-28T08:50:25;99048.60;;;0.03;76.84
50011;BME280;35899;50.352;19.390;2023-02-28T08:52:52;99051.71;;;-0.02;76.85
50011;BME280;35899;50.352;19.390;2023-02-28T08:55:19;99054.14;;;-0.07;76.86
50011;BME280;35899;50.352;19.390;2023-02-28T08:57:45;99052.14;;;-0.12;76.76
50011;BME280;35899;50.352;19.390;2023-02-28T09:00:12;99054.75;;;-0.18;76.60
50011;BME280;35899;50.352;19.390;2023-02-28T09:02:40;99055.95;;;-0.21;76.75
50011;BME280;35899;50.352;19.390;2023-02-28T09:05:07;99054.21;;;-0.16;76.61
50011;BME280;35899;50.352;19.390;2023-02-28T09:07:34;99055.16;;;-0.08;76.67
50011;BME280;35899;50.352;19.390;2023-02-28T09:10:00;99054.92;;;0.01;75.96
50011;BME280;35899;50.352;19.390;2023-02-28T09:12:27;99055.16;;;0.10;75.93
50011;BME280;35899;50.352;19.390;2023-02-28T09:14:57;99058.96;;;0.22;75.73
50011;BME280;35899;50.352;19.390;2023-02-28T09:17:24;99061.13;;;0.26;74.79
50011;BME280;35899;50.352;19.390;2023-02-28T09:19:57;99061.46;;;0.27;74.44
50011;BME280;35899;50.352;19.390;2023-02-28T09:22:23;99063.98;;;0.31;74.41
50011;BME280;35899;50.352;19.390;2023-02-28T09:24:49;99057.05;;;0.41;75.10
50011;BME280;35899;50.352;19.390;2023-02-28T09:27:16;99058.83;;;0.51;74.85
50011;BME280;35899;50.352;19.390;2023-02-28T09:29:42;99064.19;;;0.58;74.95
50011;BME280;35899;50.352;19.390;2023-02-28T09:32:09;99059.67;;;0.66;74.67
50011;BME280;35899;50.352;19.390;2023-02-28T09:34:35;99059.44;;;0.71;74.59
50011;BME280;35899;50.352;19.390;2023-02-28T09:37:02;99062.60;;;0.76;74.75
50011;BME280;35899;50.352;19.390;2023-02-28T09:39:29;99063.21;;;0.82;74.75
50011;BME280;35899;50.352;19.390;2023-02-28T09:41:55;99065.07;;;0.83;74.57
50011;BME280;35899;50.352;19.390;2023-02-28T09:44:32;99066.68;;;0.91;74.05
50011;BME280;35899;50.352;19.390;2023-02-28T09:47:05;99065.89;;;0.98;73.79
50011;BME280;35899;50.352;19.390;2023-02-28T09:49:43;99064.09;;;1.06;73.62
50011;BME280;35899;50.352;19.390;2023-02-28T09:52:30;99067.42;;;1.13;73.80
50011;BME280;35899;50.352;19.390;2023-02-28T09:57:45;99067.98;;;1.22;74.28
50011;BME280;35899;50.352;19.390;2023-02-28T10:00:16;99068.09;;;1.26;74.57
50011;BME280;35899;50.352;19.390;2023-02-28T10:05:33;99070.96;;;1.39;73.73
50011;BME280;35899;50.352;19.390;2023-02-28T10:10:39;99070.70;;;1.33;73.15
50011;BME280;35899;50.352;19.390;2023-02-28T10:13:11;99071.29;;;1.29;72.58
50011;BME280;35899;50.352;19.390;2023-02-28T10:15:39;99071.36;;;1.23;72.89
50011;BME280;35899;50.352;19.390;2023-02-28T10:18:08;99069.02;;;1.20;73.36
50011;BME280;35899;50.352;19.390;2023-02-28T10:20:39;99066.88;;;1.14;73.30
50011;BME280;35899;50.352;19.390;2023-02-28T10:25:38;99062.94;;;1.17;73.38
50011;BME280;35899;50.352;19.390;2023-02-28T10:28:09;99063.70;;;1.35;73.42
50011;BME280;35899;50.352;19.390;2023-02-28T10:30:40;99059.02;;;1.83;73.14
50011;BME280;35899;50.352;19.390;2023-02-28T10:33:11;99054.66;;;2.62;72.87
50011;BME280;35899;50.352;19.390;2023-02-28T10:35:42;99054.08;;;3.52;71.97
50011;BME280;35899;50.352;19.390;2023-02-28T10:38:11;99042.13;;;4.51;70.93
50011;BME280;35899;50.352;19.390;2023-02-28T10:40:40;99036.02;;;4.98;69.64
50011;BME280;35899;50.352;19.390;2023-02-28T10:45:39;99039.96;;;5.91;66.82
50011;BME280;35899;50.352;19.390;2023-02-28T10:50:50;99032.80;;;7.79;64.73
50011;BME280;35899;50.352;19.390;2023-02-28T10:56:01;99019.02;;;9.69;60.30
50011;BME280;35899;50.352;19.390;2023-02-28T10:58:44;99022.54;;;10.37;58.84
50011;BME280;35899;50.352;19.390;2023-02-28T11:01:20;99021.30;;;11.03;58.63
50011;BME280;35899;50.352;19.390;2023-02-28T11:03:48;99022.73;;;11.43;56.57
50011;BME280;35899;50.352;19.390;2023-02-28T11:06:19;99016.91;;;11.63;55.17
50011;BME280;35899;50.352;19.390;2023-02-28T11:08:48;99013.02;;;12.16;55.12
50011;BME280;35899;50.352;19.390;2023-02-28T11:11:16;99007.94;;;12.68;54.38
50011;BME280;35899;50.352;19.390;2023-02-28T11:13:43;99005.45;;;13.28;53.61
50011;BME280;35899;50.352;19.390;2023-02-28T11:16:11;99003.37;;;13.73;53.98
50011;BME280;35899;50.352;19.390;2023-02-28T11:21:05;99002.14;;;14.46;51.32
50011;BME280;35899;50.352;19.390;2023-02-28T11:23:32;99000.81;;;14.60;49.78
50011;BME280;35899;50.352;19.390;2023-02-28T11:26:04;99001.39;;;14.97;49.94
50011;BME280;35899;50.352;19.390;2023-02-28T11:28:38;98998.09;;;14.37;49.74
50011;BME280;35899;50.352;19.390;2023-02-28T11:33:54;98992.83;;;14.24;47.90
50011;BME280;35899;50.352;19.390;2023-02-28T11:36:24;98989.41;;;14.44;46.90
50011;BME280;35899;50.352;19.390;2023-02-28T11:38:52;98986.91;;;14.70;46.12
50011;BME280;35899;50.352;19.390;2023-02-28T11:41:46;98983.98;;;15.21;45.56
50011;BME280;35899;50.352;19.390;2023-02-28T11:44:23;98979.83;;;15.85;45.19
50011;BME280;35899;50.352;19.390;2023-02-28T11:46:58;98973.60;;;16.51;44.89
50011;BME280;35899;50.352;19.390;2023-02-28T11:52:05;98969.13;;;17.49;43.70
50011;BME280;35899;50.352;19.390;2023-02-28T11:59:50;98966.73;;;18.87;41.25
50011;BME280;35899;50.352;19.390;2023-02-28T12:02:24;98963.04;;;19.13;40.59
50011;BME280;35899;50.352;19.390;2023-02-28T12:10:24;98962.42;;;19.38;38.47
50011;BME280;35899;50.352;19.390;2023-02-28T12:15:43;98955.62;;;20.24;38.23
50011;BME280;35899;50.352;19.390;2023-02-28T12:18:20;98952.75;;;20.49;37.06
50011;BME280;35899;50.352;19.390;2023-02-28T12:20:54;98948.95;;;20.72;36.84
50011;BME280;35899;50.352;19.390;2023-02-28T12:28:43;98949.43;;;21.68;36.36
50011;BME280;35899;50.352;19.390;2023-02-28T12:33:45;98950.60;;;22.11;36.45
50011;BME280;35899;50.352;19.390;2023-02-28T12:36:14;98948.30;;;22.36;35.56
50011;BME280;35899;50.352;19.390;2023-02-28T12:41:41;98940.33;;;22.40;35.45
50011;BME280;35899;50.352;19.390;2023-02-28T12:44:28;98942.72;;;22.78;34.56
50011;BME280;35899;50.352;19.390;2023-02-28T12:47:01;98945.95;;;22.67;35.02
50011;BME280;35899;50.352;19.390;2023-02-28T12:49:33;98941.71;;;22.62;34.21
50011;BME280;35899;50.352;19.390;2023-02-28T12:52:02;98938.25;;;22.90;34.71
50011;BME280;35899;50.352;19.390;2023-02-28T12:54:32;98936.16;;;23.15;34.22
50011;BME280;35899;50.352;19.390;2023-02-28T12:57:13;98934.94;;;23.48;34.05
50011;BME280;35899;50.352;19.390;2023-02-28T12:59:48;98930.30;;;23.76;33.88
50011;BME280;35899;50.352;19.390;2023-02-28T13:09:59;98930.21;;;24.09;32.60
50011;BME280;35899;50.352;19.390;2023-02-28T13:12:26;98927.68;;;24.15;31.36
50011;BME280;35899;50.352;19.390;2023-02-28T13:17:56;98925.23;;;24.21;31.06
50011;BME280;35899;50.352;19.390;2023-02-28T13:20:23;98927.72;;;24.35;31.14
50011;BME280;35899;50.352;19.390;2023-02-28T13:22:52;98928.42;;;24.19;31.50
50011;BME280;35899;50.352;19.390;2023-02-28T13:27:50;98928.55;;;21.95;31.20
50011;BME280;35899;50.352;19.390;2023-02-28T13:35:48;98932.32;;;14.35;34.94
50011;BME280;35899;50.352;19.390;2023-02-28T13:38:16;98929.35;;;12.52;35.38
50011;BME280;35899;50.352;19.390;2023-02-28T13:40:43;98930.27;;;10.95;36.26
50011;BME280;35899;50.352;19.390;2023-02-28T13:43:09;98931.05;;;9.75;38.49
50011;BME280;35899;50.352;19.390;2023-02-28T13:45:35;98934.77;;;8.85;40.60
50011;BME280;35899;50.352;19.390;2023-02-28T13:48:02;98935.69;;;8.18;41.71
50011;BME280;35899;50.352;19.390;2023-02-28T13:50:33;98940.44;;;7.64;42.47
50011;BME280;35899;50.352;19.390;2023-02-28T13:56:00;98938.19;;;6.65;44.33
50011;BME280;35899;50.352;19.390;2023-02-28T14:04:14;98935.53;;;5.50;46.79
50011;BME280;35899;50.352;19.390;2023-02-28T14:06:48;98932.92;;;5.25;46.95
50011;BME280;35899;50.352;19.390;2023-02-28T14:09:27;98929.25;;;5.00;47.47
50011;BME280;35899;50.352;19.390;2023-02-28T14:11:54;98926.86;;;4.78;48.05
50011;BME280;35899;50.352;19.390;2023-02-28T14:17:04;98916.10;;;4.36;48.48
50011;BME280;35899;50.352;19.390;2023-02-28T14:19:32;98914.14;;;4.15;49.10
50011;BME280;35899;50.352;19.390;2023-02-28T14:24:34;98921.25;;;3.93;50.06
50011;BME280;35899;50.352;19.390;2023-02-28T14:32:46;98919.52;;;3.62;50.95
50011;BME280;35899;50.352;19.390;2023-02-28T14:37:54;98915.08;;;3.35;51.76
50011;BME280;35899;50.352;19.390;2023-02-28T14:40:30;98913.98;;;3.30;52.03
50011;BME280;35899;50.352;19.390;2023-02-28T14:43:00;98913.08;;;3.25;52.43
50011;BME280;35899;50.352;19.390;2023-02-28T14:45:29;98911.55;;;3.18;52.84
50011;BME280;35899;50.352;19.390;2023-02-28T14:47:55;98912.57;;;3.11;53.21
50011;BME280;35899;50.352;19.390;2023-02-28T14:50:24;98906.81;;;3.01;53.33
50011;BME280;35899;50.352;19.390;2023-02-28T14:52:53;98904.94;;;2.94;53.71
50011;BME280;35899;50.352;19.390;2023-02-28T14:55:23;98904.96;;;2.86;54.12
50011;BME280;35899;50.352;19.390;2023-02-28T14:57:55;98904.64;;;2.77;53.91
50011;BME280;35899;50.352;19.390;2023-02-28T15:00:23;98905.63;;;2.71;54.27
50011;BME280;35899;50.352;19.390;2023-02-28T15:05:28;98911.85;;;2.60;55.08
50011;BME280;35899;50.352;19.390;2023-02-28T15:10:55;98910.39;;;2.49;55.31
50011;BME280;35899;50.352;19.390;2023-02-28T15:13:35;98908.13;;;2.43;55.59